createdAt,value
2018-02-16T00:02:34.380Z,64.26
2018-02-16T00:17:34.465Z,64.46
2018-02-16T00:32:34.234Z,64.75
2018-02-16T00:47:36.649Z,65.07
2018-02-16T01:02:36.453Z,65.30
2018-02-16T01:17:34.727Z,65.57
2018-02-16T01:32:34.475Z,65.75
2018-02-16T01:47:34.969Z,65.93
2018-02-16T02:02:36.847Z,66.09
2018-02-16T02:17:34.745Z,66.14
2018-02-16T02:32:36.582Z,66.38
2018-02-16T02:47:35.387Z,66.79
2018-02-16T03:02:35.367Z,67.11
2018-02-16T03:17:35.210Z,67.26
2018-02-16T03:32:35.068Z,67.06
2018-02-16T03:47:34.326Z,66.69
2018-02-16T04:02:34.296Z,66.20
2018-02-16T04:17:34.863Z,65.82
2018-02-16T04:32:34.629Z,65.54
2018-02-16T04:47:36.980Z,65.03
2018-02-16T05:02:36.824Z,64.94
2018-02-16T05:17:34.566Z,64.71
2018-02-16T05:32:34.410Z,64.54
2018-02-16T05:47:36.690Z,64.58
2018-02-16T06:02:36.795Z,64.13
2018-02-16T06:17:34.831Z,63.82
2018-02-16T06:32:37.668Z,63.72
2018-02-16T06:47:35.257Z,62.89
2018-02-16T07:02:35.441Z,61.17
2018-02-16T07:17:35.210Z,59.95
2018-02-16T07:32:35.278Z,58.21
2018-02-16T07:47:36.692Z,56.50
2018-02-16T08:32:37.636Z,53.47
2018-02-16T08:47:34.957Z,52.52
2018-02-16T09:02:36.343Z,50.43
2018-02-16T09:17:33.840Z,48.11
2018-02-16T09:32:34.337Z,44.43
2018-02-16T09:47:34.855Z,44.38
2018-02-16T10:02:34.721Z,44.01
2018-02-16T10:17:34.963Z,44.08
2018-02-16T10:32:34.551Z,42.74
2018-02-16T10:47:37.013Z,41.89
2018-02-16T11:02:52.197Z,42.80
2018-02-16T11:17:34.646Z,42.71
2018-02-16T11:32:34.906Z,42.05
2018-02-16T11:47:37.283Z,41.69
2018-02-16T12:02:35.158Z,42.21
2018-02-16T12:17:35.113Z,42.45
2018-02-16T12:32:34.978Z,42.65
2018-02-16T12:47:34.752Z,43.50
2018-02-16T13:02:33.884Z,44.44
2018-02-16T13:17:34.258Z,45.13
2018-02-16T13:32:34.339Z,46.54
2018-02-16T13:47:34.648Z,47.59
2018-02-16T14:02:34.862Z,48.22
2018-02-16T14:17:36.032Z,48.79
2018-02-16T14:32:34.310Z,49.63
2018-02-16T14:47:34.821Z,50.96
2018-02-16T15:02:35.780Z,51.83
2018-02-16T15:17:34.711Z,53.75
2018-02-16T15:32:35.927Z,54.62
2018-02-16T15:47:37.400Z,55.96
2018-02-16T16:02:34.544Z,57.30
2018-02-16T16:17:36.242Z,58.54
2018-02-16T16:32:36.423Z,59.48
2018-02-16T16:47:34.324Z,60.65
2018-02-16T17:02:34.556Z,61.56
2018-02-16T17:17:35.876Z,47.06
2018-02-16T17:32:37.306Z,49.83
2018-02-16T17:47:36.840Z,54.50
2018-02-16T18:02:36.047Z,57.99
2018-02-16T18:17:34.476Z,60.44
2018-02-16T19:32:41.106Z,66.96
2018-02-16T20:02:35.088Z,68.61
2018-02-16T20:17:34.938Z,69.02
2018-02-16T20:32:37.238Z,69.02
2018-02-16T21:02:34.649Z,69.53
2018-02-16T21:17:36.948Z,69.29
2018-02-16T21:32:37.165Z,69.95
2018-02-16T21:47:34.515Z,69.64
2018-02-16T22:02:37.685Z,70.10
2018-02-16T22:32:36.015Z,71.05
2018-02-16T22:47:34.809Z,70.83
2018-02-16T23:02:34.510Z,71.31
2018-02-16T23:17:48.381Z,71.09
2018-02-16T23:32:34.382Z,70.75
2018-02-16T23:47:34.904Z,71.08
